sensor_id;sensor_type;location;lat;lon;timestamp;pressure;altitude;pressure_sealevel;temperature;humidity
21361;BME280;10839;43.206;23.550;2023-02-13T00:00:33;99037.41;;;3.62;93.04
21361;BME280;10839;43.206;23.550;2023-02-13T00:02:59;99048.03;;;3.37;94.23
21361;BME280;10839;43.206;23.550;2023-02-13T00:05:25;99040.59;;;3.42;93.84
21361;BME280;10839;43.206;23.550;2023-02-13T00:07:51;99042.72;;;3.62;93.45
21361;BME280;10839;43.206;23.550;2023-02-13T00:10:17;99047.72;;;3.66;92.19
21361;BME280;10839;43.206;23.550;2023-02-13T00:12:43;99049.53;;;3.41;93.70
21361;BME280;10839;43.206;23.550;2023-02-13T00:15:08;99045.69;;;3.45;93.65
21361;BME280;10839;43.206;23.550;2023-02-13T00:17:35;99050.00;;;3.72;92.56
21361;BME280;10839;43.206;23.550;2023-02-13T00:20:01;99064.25;;;3.59;92.66
21361;BME280;10839;43.206;23.550;2023-02-13T00:22:27;99056.34;;;3.45;94.06
21361;BME280;10839;43.206;23.550;2023-02-13T00:24:53;99057.41;;;3.55;93.42
21361;BME280;10839;43.206;23.550;2023-02-13T00:27:19;99058.28;;;3.68;91.61
21361;BME280;10839;43.206;23.550;2023-02-13T00:29:45;99063.16;;;3.49;94.00
21361;BME280;10839;43.206;23.550;2023-02-13T00:32:13;99062.94;;;3.52;94.14
21361;BME280;10839;43.206;23.550;2023-02-13T00:34:40;99065.06;;;3.59;94.66
21361;BME280;10839;43.206;23.550;2023-02-13T00:37:07;99068.91;;;3.55;93.81
21361;BME280;10839;43.206;23.550;2023-02-13T00:39:32;99065.88;;;3.35;94.97
21361;BME280;10839;43.206;23.550;2023-02-13T00:41:58;99078.16;;;3.50;95.23
21361;BME280;10839;43.206;23.550;2023-02-13T00:44:24;99079.78;;;3.65;94.29
21361;BME280;10839;43.206;23.550;2023-02-13T00:46:50;99084.88;;;3.55;94.82
21361;BME280;10839;43.206;23.550;2023-02-13T00:49:16;99071.22;;;3.35;96.21
21361;BME280;10839;43.206;23.550;2023-02-13T00:51:41;99066.97;;;3.45;95.77
21361;BME280;10839;43.206;23.550;2023-02-13T00:54:07;99070.59;;;3.56;94.76
21361;BME280;10839;43.206;23.550;2023-02-13T00:56:33;99080.16;;;3.34;96.78
21361;BME280;10839;43.206;23.550;2023-02-13T00:58:59;99091.00;;;3.31;97.20
21361;BME280;10839;43.206;23.550;2023-02-13T01:01:25;99081.34;;;3.42;97.34
21361;BME280;10839;43.206;23.550;2023-02-13T01:03:50;99077.63;;;3.45;96.53
21361;BME280;10839;43.206;23.550;2023-02-13T01:06:16;99080.38;;;3.31;97.36
21361;BME280;10839;43.206;23.550;2023-02-13T01:08:42;99081.84;;;3.35;97.78
21361;BME280;10839;43.206;23.550;2023-02-13T01:11:08;99084.78;;;3.57;96.02
21361;BME280;10839;43.206;23.550;2023-02-13T01:13:35;99086.63;;;3.30;96.74
21361;BME280;10839;43.206;23.550;2023-02-13T01:16:01;99076.31;;;3.25;97.83
21361;BME280;10839;43.206;23.550;2023-02-13T01:18:27;99076.13;;;3.41;97.33
21361;BME280;10839;43.206;23.550;2023-02-13T01:21:00;99080.22;;;3.59;95.05
21361;BME280;10839;43.206;23.550;2023-02-13T01:23:30;99078.84;;;3.27;97.27
21361;BME280;10839;43.206;23.550;2023-02-13T01:25:56;99063.75;;;3.27;97.87
21361;BME280;10839;43.206;23.550;2023-02-13T01:28:21;99060.72;;;3.46;97.08
21361;BME280;10839;43.206;23.550;2023-02-13T01:30:52;99069.53;;;3.34;96.54
21361;BME280;10839;43.206;23.550;2023-02-13T01:33:25;99056.19;;;2.95;99.17
21361;BME280;10839;43.206;23.550;2023-02-13T01:35:52;99054.69;;;3.17;98.64
21361;BME280;10839;43.206;23.550;2023-02-13T01:38:18;99054.59;;;3.19;97.81
21361;BME280;10839;43.206;23.550;2023-02-13T01:40:51;99055.53;;;2.91;98.60
21361;BME280;10839;43.206;23.550;2023-02-13T01:43:18;99059.13;;;2.78;100.00
21361;BME280;10839;43.206;23.550;2023-02-13T01:45:49;99064.72;;;3.00;99.25
21361;BME280;10839;43.206;23.550;2023-02-13T01:48:22;99063.91;;;3.12;97.53
21361;BME280;10839;43.206;23.550;2023-02-13T01:55:57;99049.91;;;3.22;98.09
21361;BME280;10839;43.206;23.550;2023-02-13T01:58:28;99051.97;;;3.05;98.38
21361;BME280;10839;43.206;23.550;2023-02-13T02:00:56;99046.66;;;3.05;97.68
21361;BME280;10839;43.206;23.550;2023-02-13T02:05:59;99045.69;;;3.32;95.75
21361;BME280;10839;43.206;23.550;2023-02-13T02:08:27;99054.25;;;3.11;96.99
21361;BME280;10839;43.206;23.550;2023-02-13T02:10:55;99056.00;;;2.98;98.12
21361;BME280;10839;43.206;23.550;2023-02-13T02:13:25;99054.63;;;3.05;97.55
21361;BME280;10839;43.206;23.550;2023-02-13T02:15:51;99063.31;;;3.21;95.87
21361;BME280;10839;43.206;23.550;2023-02-13T02:18:22;99066.34;;;2.76;98.83
21361;BME280;10839;43.206;23.550;2023-02-13T02:21:35;99066.13;;;2.79;99.41
21361;BME280;10839;43.206;23.550;2023-02-13T02:34:40;99069.56;;;2.81;98.52
21361;BME280;10839;43.206;23.550;2023-02-13T02:37:16;99061.31;;;2.44;100.00
21361;BME280;10839;43.206;23.550;2023-02-13T02:48:06;99060.28;;;2.19;100.00
21361;BME280;10839;43.206;23.550;2023-02-13T02:51:05;99065.09;;;2.40;100.00
21361;BME280;10839;43.206;23.550;2023-02-13T02:58:51;99054.59;;;2.11;100.00
21361;BME280;10839;43.206;23.550;2023-02-13T03:01:38;99041.59;;;2.20;100.00
21361;BME280;10839;43.206;23.550;2023-02-13T03:04:52;99056.41;;;1.82;100.00
21361;BME280;10839;43.206;23.550;2023-02-13T03:07:37;99041.88;;;2.02;100.00
21361;BME280;10839;43.206;23.550;2023-02-13T03:10:26;99040.84;;;2.18;100.00
21361;BME280;10839;43.206;23.550;2023-02-13T03:13:32;99045.78;;;1.82;100.00
21361;BME280;10839;43.206;23.550;2023-02-13T03:16:02;99045.97;;;2.07;100.00
21361;BME280;10839;43.206;23.550;2023-02-13T03:18:51;99060.56;;;2.14;100.00
21361;BME280;10839;43.206;23.550;2023-02-13T03:39:33;99065.63;;;1.47;100.00
21361;BME280;10839;43.206;23.550;2023-02-13T03:42:04;99063.00;;;1.17;100.00
21361;BME280;10839;43.206;23.550;2023-02-13T03:44:41;99060.13;;;1.50;100.00
21361;BME280;10839;43.206;23.550;2023-02-13T03:47:10;99055.88;;;1.48;100.00
21361;BME280;10839;43.206;23.550;2023-02-13T03:49:42;99061.44;;;1.29;100.00
21361;BME280;10839;43.206;23.550;2023-02-13T03:52:52;99060.72;;;1.11;100.00
21361;BME280;10839;43.206;23.550;2023-02-13T03:55:21;99060.22;;;1.35;100.00
21361;BME280;10839;43.206;23.550;2023-02-13T03:58:13;99065.16;;;1.41;100.00
21361;BME280;10839;43.206;23.550;2023-02-13T04:01:01;99047.50;;;0.96;100.00
21361;BME280;10839;43.206;23.550;2023-02-13T04:03:44;99054.84;;;1.06;100.00
21361;BME280;10839;43.206;23.550;2023-02-13T04:06:21;99056.38;;;1.54;100.00
21361;BME280;10839;43.206;23.550;2023-02-13T04:08:48;99051.50;;;1.47;100.00
21361;BME280;10839;43.206;23.550;2023-02-13T04:11:27;99063.50;;;1.24;100.00
21361;BME280;10839;43.206;23.550;2023-02-13T04:14:23;99062.03;;;1.48;100.00
21361;BME280;10839;43.206;23.550;2023-02-13T04:16:55;99074.41;;;1.77;100.00
21361;BME280;10839;43.206;23.550;2023-02-13T04:19:24;99071.31;;;1.55;100.00
21361;BME280;10839;43.206;23.550;2023-02-13T04:21:56;99073.47;;;1.35;100.00
21361;BME280;10839;43.206;23.550;2023-02-13T04:24:24;99068.88;;;1.52;100.00
21361;BME280;10839;43.206;23.550;2023-02-13T04:26:51;99071.56;;;1.66;100.00
21361;BME280;10839;43.206;23.550;2023-02-13T04:29:17;99070.72;;;1.36;100.00
21361;BME280;10839;43.206;23.550;2023-02-13T04:31:43;99060.97;;;1.07;100.00
21361;BME280;10839;43.206;23.550;2023-02-13T04:34:09;99064.09;;;1.43;100.00
21361;BME280;10839;43.206;23.550;2023-02-13T04:36:35;99059.41;;;1.62;100.00
21361;BME280;10839;43.206;23.550;2023-02-13T04:39:01;99066.97;;;1.54;100.00
21361;BME280;10839;43.206;23.550;2023-02-13T04:41:27;99059.47;;;1.03;100.00
21361;BME280;10839;43.206;23.550;2023-02-13T04:43:53;99069.03;;;1.05;100.00
21361;BME280;10839;43.206;23.550;2023-02-13T04:46:18;99067.72;;;1.42;100.00
21361;BME280;10839;43.206;23.550;2023-02-13T04:48:44;99072.22;;;1.26;100.00
21361;BME280;10839;43.206;23.550;2023-02-13T04:51:10;99068.03;;;0.92;100.00
21361;BME280;10839;43.206;23.550;2023-02-13T04:53:36;99066.56;;;0.87;100.00
21361;BME280;10839;43.206;23.550;2023-02-13T04:56:01;99075.75;;;1.41;100.00
21361;BME280;10839;43.206;23.550;2023-02-13T04:58:27;99058.97;;;1.40;100.00
21361;BME280;10839;43.206;23.550;2023-02-13T05:00:53;99083.72;;;1.11;100.00
21361;BME280;10839;43.206;23.550;2023-02-13T05:03:19;99076.66;;;0.96;100.00
21361;BME280;10839;43.206;23.550;2023-02-13T05:05:45;99073.19;;;1.39;100.00
21361;BME280;10839;43.206;23.550;2023-02-13T05:08:11;99077.19;;;1.46;100.00
21361;BME280;10839;43.206;23.550;2023-02-13T05:10:37;99083.34;;;1.17;100.00
21361;BME280;10839;43.206;23.550;2023-02-13T05:13:02;99091.09;;;1.06;100.00
21361;BME280;10839;43.206;23.550;2023-02-13T05:15:28;99091.38;;;1.31;100.00
21361;BME280;10839;43.206;23.550;2023-02-13T05:17:54;99092.09;;;1.63;98.86
21361;BME280;10839;43.206;23.550;2023-02-13T05:20:20;99096.16;;;1.54;97.71
21361;BME280;10839;43.206;23.550;2023-02-13T05:22:53;99089.47;;;1.33;99.30
21361;BME280;10839;43.206;23.550;2023-02-13T05:25:39;99100.03;;;1.49;98.67
21361;BME280;10839;43.206;23.550;2023-02-13T05:28:06;99100.94;;;1.77;96.91
21361;BME280;10839;43.206;23.550;2023-02-13T05:30:51;99094.59;;;1.36;97.78
21361;BME280;10839;43.206;23.550;2023-02-13T05:33:17;99095.69;;;1.18;100.00
21361;BME280;10839;43.206;23.550;2023-02-13T05:35:43;99098.66;;;1.42;99.05
21361;BME280;10839;43.206;23.550;2023-02-13T05:38:08;99094.94;;;1.60;96.80
21361;BME280;10839;43.206;23.550;2023-02-13T05:40:34;99104.97;;;1.55;96.54
21361;BME280;10839;43.206;23.550;2023-02-13T05:43:00;99108.47;;;1.55;96.57
21361;BME280;10839;43.206;23.550;2023-02-13T05:45:26;99107.22;;;2.04;93.66
21361;BME280;10839;43.206;23.550;2023-02-13T05:47:52;99101.00;;;2.74;87.46
21361;BME280;10839;43.206;23.550;2023-02-13T05:50:18;99103.00;;;2.71;86.03
21361;BME280;10839;43.206;23.550;2023-02-13T05:52:43;99105.94;;;2.66;85.74
21361;BME280;10839;43.206;23.550;2023-02-13T05:55:09;99111.66;;;3.40;81.78
21361;BME280;10839;43.206;23.550;2023-02-13T05:57:35;99109.19;;;4.01;77.54
21361;BME280;10839;43.206;23.550;2023-02-13T06:00:02;99111.75;;;3.90;78.03
21361;BME280;10839;43.206;23.550;2023-02-13T06:02:31;99108.78;;;4.07;77.00
21361;BME280;10839;43.206;23.550;2023-02-13T06:04:56;99110.16;;;4.86;72.59
21361;BME280;10839;43.206;23.550;2023-02-13T06:07:23;99112.78;;;5.22;70.15
21361;BME280;10839;43.206;23.550;2023-02-13T06:09:50;99107.84;;;4.69;71.93
21361;BME280;10839;43.206;23.550;2023-02-13T06:12:16;99116.47;;;5.56;68.94
21361;BME280;10839;43.206;23.550;2023-02-13T06:14:42;99109.03;;;6.73;63.51
21361;BME280;10839;43.206;23.550;2023-02-13T06:17:08;99108.78;;;6.43;63.73
21361;BME280;10839;43.206;23.550;2023-02-13T06:19:33;99116.03;;;6.19;65.00
21361;BME280;10839;43.206;23.550;2023-02-13T06:21:59;99103.72;;;7.16;61.18
21361;BME280;10839;43.206;23.550;2023-02-13T06:24:25;99116.16;;;7.48;58.76
21361;BME280;10839;43.206;23.550;2023-02-13T06:26:51;99115.94;;;7.93;57.57
21361;BME280;10839;43.206;23.550;2023-02-13T06:29:17;99111.41;;;8.85;54.76
21361;BME280;10839;43.206;23.550;2023-02-13T06:31:42;99109.78;;;9.13;52.46
21361;BME280;10839;43.206;23.550;2023-02-13T06:34:08;99115.75;;;9.16;52.74
21361;BME280;10839;43.206;23.550;2023-02-13T06:36:34;99116.38;;;10.24;50.21
21361;BME280;10839;43.206;23.550;2023-02-13T06:39:03;99124.00;;;10.29;48.85
21361;BME280;10839;43.206;23.550;2023-02-13T06:41:29;99110.81;;;10.36;48.96
21361;BME280;10839;43.206;23.550;2023-02-13T06:43:55;99120.19;;;11.49;46.64
21361;BME280;10839;43.206;23.550;2023-02-13T06:46:20;99121.03;;;11.50;45.00
21361;BME280;10839;43.206;23.550;2023-02-13T06:48:46;99123.44;;;10.72;46.21
21361;BME280;10839;43.206;23.550;2023-02-13T06:51:12;99131.28;;;10.56;45.55
21361;BME280;10839;43.206;23.550;2023-02-13T06:53:38;99125.31;;;10.62;45.32
21361;BME280;10839;43.206;23.550;2023-02-13T06:56:04;99128.69;;;9.79;47.67
21361;BME280;10839;43.206;23.550;2023-02-13T06:58:33;99134.00;;;10.92;45.63
21361;BME280;10839;43.206;23.550;2023-02-13T07:00:59;99123.53;;;12.39;42.86
21361;BME280;10839;43.206;23.550;2023-02-13T07:03:25;99132.47;;;12.57;42.30
21361;BME280;10839;43.206;23.550;2023-02-13T07:05:50;99124.13;;;12.76;42.32
21361;BME280;10839;43.206;23.550;2023-02-13T07:08:16;99123.13;;;13.53;40.96
21361;BME280;10839;43.206;23.550;2023-02-13T07:10:42;99132.03;;;14.03;39.94
21361;BME280;10839;43.206;23.550;2023-02-13T07:13:09;99138.47;;;14.18;39.37
21361;BME280;10839;43.206;23.550;2023-02-13T07:15:35;99130.44;;;13.11;41.21
21361;BME280;10839;43.206;23.550;2023-02-13T07:18:02;99132.38;;;14.08;39.98
21361;BME280;10839;43.206;23.550;2023-02-13T07:20:29;99126.25;;;14.62;38.90
21361;BME280;10839;43.206;23.550;2023-02-13T07:22:59;99133.19;;;15.27;37.81
21361;BME280;10839;43.206;23.550;2023-02-13T07:25:26;99131.63;;;14.94;37.61
21361;BME280;10839;43.206;23.550;2023-02-13T07:27:52;99130.97;;;16.23;36.37
21361;BME280;10839;43.206;23.550;2023-02-13T07:30:19;99135.50;;;15.77;36.49
21361;BME280;10839;43.206;23.550;2023-02-13T07:32:45;99137.09;;;15.72;36.45
21361;BME280;10839;43.206;23.550;2023-02-13T07:35:10;99133.25;;;16.11;35.96
21361;BME280;10839;43.206;23.550;2023-02-13T07:37:36;99139.38;;;15.83;36.39
21361;BME280;10839;43.206;23.550;2023-02-13T07:40:02;99129.56;;;16.04;35.94
21361;BME280;10839;43.206;23.550;2023-02-13T07:42:32;99137.28;;;15.93;35.97
21361;BME280;10839;43.206;23.550;2023-02-13T07:44:59;99133.91;;;14.19;38.91
21361;BME280;10839;43.206;23.550;2023-02-13T07:47:25;99132.50;;;15.33;37.46
21361;BME280;10839;43.206;23.550;2023-02-13T07:49:51;99128.53;;;16.28;36.17
21361;BME280;10839;43.206;23.550;2023-02-13T07:52:17;99140.00;;;14.61;37.67
21361;BME280;10839;43.206;23.550;2023-02-13T07:54:42;99142.22;;;15.20;37.90
21361;BME280;10839;43.206;23.550;2023-02-13T07:57:13;99129.94;;;15.71;37.27
21361;BME280;10839;43.206;23.550;2023-02-13T07:59:39;99130.88;;;16.31;36.02
21361;BME280;10839;43.206;23.550;2023-02-13T08:02:05;99126.56;;;14.83;38.53
21361;BME280;10839;43.206;23.550;2023-02-13T08:04:30;99129.88;;;15.87;37.01
21361;BME280;10839;43.206;23.550;2023-02-13T08:06:56;99130.66;;;16.78;35.68
21361;BME280;10839;43.206;23.550;2023-02-13T08:09:22;99130.34;;;14.10;39.57
21361;BME280;10839;43.206;23.550;2023-02-13T08:12:09;99120.81;;;15.72;37.36
21361;BME280;10839;43.206;23.550;2023-02-13T08:14:36;99122.38;;;15.89;36.92
21361;BME280;10839;43.206;23.550;2023-02-13T08:17:01;99114.03;;;14.90;38.16
21361;BME280;10839;43.206;23.550;2023-02-13T08:19:27;99110.47;;;14.90;38.29
21361;BME280;10839;43.206;23.550;2023-02-13T08:21:53;99115.72;;;16.14;37.12
21361;BME280;10839;43.206;23.550;2023-02-13T08:24:19;99117.16;;;16.84;35.78
21361;BME280;10839;43.206;23.550;2023-02-13T08:26:45;99113.66;;;15.71;36.51
21361;BME280;10839;43.206;23.550;2023-02-13T08:29:11;99118.63;;;16.57;36.45
21361;BME280;10839;43.206;23.550;2023-02-13T08:31:37;99108.53;;;16.95;35.16
21361;BME280;10839;43.206;23.550;2023-02-13T08:34:03;99111.88;;;15.86;36.09
21361;BME280;10839;43.206;23.550;2023-02-13T08:36:30;99106.75;;;16.73;35.40
21361;BME280;10839;43.206;23.550;2023-02-13T08:38:56;99113.69;;;14.93;38.17
21361;BME280;10839;43.206;23.550;2023-02-13T08:41:22;99107.91;;;15.96;36.32
21361;BME280;10839;43.206;23.550;2023-02-13T08:43:49;99107.50;;;15.54;36.51
21361;BME280;10839;43.206;23.550;2023-02-13T08:46:16;99107.84;;;16.27;35.80
21361;BME280;10839;43.206;23.550;2023-02-13T08:48:42;99103.41;;;16.26;35.70
21361;BME280;10839;43.206;23.550;2023-02-13T08:51:10;99110.22;;;15.07;37.45
21361;BME280;10839;43.206;23.550;2023-02-13T08:53:37;99103.16;;;15.68;36.66
21361;BME280;10839;43.206;23.550;2023-02-13T08:56:03;99102.84;;;15.93;36.89
21361;BME280;10839;43.206;23.550;2023-02-13T08:58:29;99096.59;;;15.62;36.34
21361;BME280;10839;43.206;23.550;2023-02-13T09:00:56;99105.25;;;16.11;35.71
21361;BME280;10839;43.206;23.550;2023-02-13T09:03:22;99102.44;;;16.19;35.78
21361;BME280;10839;43.206;23.550;2023-02-13T09:05:48;99111.38;;;15.82;36.28
21361;BME280;10839;43.206;23.550;2023-02-13T09:08:14;99105.94;;;17.02;35.34
21361;BME280;10839;43.206;23.550;2023-02-13T09:10:41;99103.94;;;16.44;35.90
21361;BME280;10839;43.206;23.550;2023-02-13T09:13:10;99114.78;;;16.07;36.48
21361;BME280;10839;43.206;23.550;2023-02-13T09:15:39;99099.78;;;16.56;35.49
21361;BME280;10839;43.206;23.550;2023-02-13T09:18:06;99102.41;;;16.04;36.13
21361;BME280;10839;43.206;23.550;2023-02-13T09:20:32;99098.94;;;16.33;35.95
21361;BME280;10839;43.206;23.550;2023-02-13T09:22:58;99106.97;;;14.57;37.60
21361;BME280;10839;43.206;23.550;2023-02-13T09:25:24;99107.97;;;14.64;38.94
21361;BME280;10839;43.206;23.550;2023-02-13T09:27:50;99086.28;;;14.80;37.86
21361;BME280;10839;43.206;23.550;2023-02-13T09:30:16;99086.28;;;15.58;36.74
21361;BME280;10839;43.206;23.550;2023-02-13T09:32:50;99083.72;;;16.24;36.36
21361;BME280;10839;43.206;23.550;2023-02-13T09:35:17;99085.56;;;14.86;37.13
21361;BME280;10839;43.206;23.550;2023-02-13T09:37:43;99080.44;;;14.29;38.24
21361;BME280;10839;43.206;23.550;2023-02-13T09:40:58;99090.09;;;14.47;38.18
21361;BME280;10839;43.206;23.550;2023-02-13T09:43:28;99078.19;;;15.50;36.75
21361;BME280;10839;43.206;23.550;2023-02-13T09:45:58;99080.03;;;15.80;36.52
21361;BME280;10839;43.206;23.550;2023-02-13T09:48:32;99074.09;;;15.99;36.09
21361;BME280;10839;43.206;23.550;2023-02-13T09:50:59;99076.34;;;16.32;35.25
21361;BME280;10839;43.206;23.550;2023-02-13T09:53:28;99073.25;;;15.76;36.16
21361;BME280;10839;43.206;23.550;2023-02-13T09:56:04;99070.00;;;16.03;35.81
21361;BME280;10839;43.206;23.550;2023-02-13T09:58:43;99066.50;;;15.72;35.94
21361;BME280;10839;43.206;23.550;2023-02-13T10:01:28;99060.09;;;16.47;35.17
21361;BME280;10839;43.206;23.550;2023-02-13T10:04:28;99059.28;;;15.87;35.67
21361;BME280;10839;43.206;23.550;2023-02-13T10:07:27;99045.50;;;15.43;36.20
21361;BME280;10839;43.206;23.550;2023-02-13T10:10:14;99043.19;;;16.37;35.04
21361;BME280;10839;43.206;23.550;2023-02-13T10:13:15;99037.75;;;16.37;34.30
21361;BME280;10839;43.206;23.550;2023-02-13T10:16:01;99032.44;;;15.38;35.59
21361;BME280;10839;43.206;23.550;2023-02-13T10:18:41;99030.06;;;14.66;36.22
21361;BME280;10839;43.206;23.550;2023-02-13T10:21:08;99038.63;;;13.59;37.86
21361;BME280;10839;43.206;23.550;2023-02-13T10:26:20;99015.97;;;14.71;36.89
21361;BME280;10839;43.206;23.550;2023-02-13T10:28:54;99022.84;;;15.59;36.01
21361;BME280;10839;43.206;23.550;2023-02-13T10:31:42;99007.28;;;15.53;35.84
21361;BME280;10839;43.206;23.550;2023-02-13T10:34:13;99026.69;;;15.03;36.15
21361;BME280;10839;43.206;23.550;2023-02-13T10:36:44;99010.28;;;14.96;36.07
21361;BME280;10839;43.206;23.550;2023-02-13T10:39:26;99022.88;;;15.20;36.12
21361;BME280;10839;43.206;23.550;2023-02-13T10:44:50;99011.84;;;15.75;35.86
21361;BME280;10839;43.206;23.550;2023-02-13T10:50:09;99016.81;;;15.49;35.53
21361;BME280;10839;43.206;23.550;2023-02-13T10:58:19;99012.59;;;15.07;36.72
21361;BME280;10839;43.206;23.550;2023-02-13T11:01:02;99012.56;;;15.15;36.59
21361;BME280;10839;43.206;23.550;2023-02-13T11:03:31;99005.88;;;15.26;36.22
21361;BME280;10839;43.206;23.550;2023-02-13T11:05:58;98994.03;;;14.96;37.35
21361;BME280;10839;43.206;23.550;2023-02-13T11:08:33;98998.75;;;14.64;37.68
21361;BME280;10839;43.206;23.550;2023-02-13T11:10:59;98992.63;;;13.99;39.50
21361;BME280;10839;43.206;23.550;2023-02-13T11:13:28;98997.69;;;15.34;37.18
21361;BME280;10839;43.206;23.550;2023-02-13T11:16:07;99000.09;;;15.29;36.75
21361;BME280;10839;43.206;23.550;2023-02-13T11:18:40;98996.00;;;14.01;38.81
21361;BME280;10839;43.206;23.550;2023-02-13T11:21:10;98986.63;;;14.82;38.20
21361;BME280;10839;43.206;23.550;2023-02-13T11:23:49;98981.47;;;15.57;36.84
21361;BME280;10839;43.206;23.550;2023-02-13T11:26:33;98977.06;;;13.61;39.54
21361;BME280;10839;43.206;23.550;2023-02-13T11:29:04;98972.50;;;13.93;38.46
21361;BME280;10839;43.206;23.550;2023-02-13T11:31:32;98970.31;;;13.97;38.67
21361;BME280;10839;43.206;23.550;2023-02-13T11:34:23;98966.50;;;12.94;40.42
21361;BME280;10839;43.206;23.550;2023-02-13T11:37:28;98975.75;;;13.41;39.75
21361;BME280;10839;43.206;23.550;2023-02-13T11:39:57;98966.53;;;14.14;38.61
21361;BME280;10839;43.206;23.550;2023-02-13T11:42:32;98974.03;;;13.40;40.30
21361;BME280;10839;43.206;23.550;2023-02-13T11:47:35;98962.59;;;14.79;38.63
21361;BME280;10839;43.206;23.550;2023-02-13T11:50:02;98960.50;;;13.72;39.41
21361;BME280;10839;43.206;23.550;2023-02-13T11:52:32;98948.13;;;12.47;41.83
21361;BME280;10839;43.206;23.550;2023-02-13T11:55:26;98948.69;;;13.57;40.57
21361;BME280;10839;43.206;23.550;2023-02-13T11:58:02;98953.03;;;13.02;41.20
21361;BME280;10839;43.206;23.550;2023-02-13T12:00:32;98949.44;;;12.43;42.77
21361;BME280;10839;43.206;23.550;2023-02-13T12:08:33;98932.34;;;12.35;43.18
21361;BME280;10839;43.206;23.550;2023-02-13T12:11:01;98932.22;;;11.77;44.96
21361;BME280;10839;43.206;23.550;2023-02-13T12:13:38;98921.38;;;12.36;44.18
21361;BME280;10839;43.206;23.550;2023-02-13T12:19:04;98920.91;;;11.74;45.22
21361;BME280;10839;43.206;23.550;2023-02-13T12:26:47;98903.41;;;12.11;44.44
21361;BME280;10839;43.206;23.550;2023-02-13T12:32:31;98887.19;;;11.52;46.01
21361;BME280;10839;43.206;23.550;2023-02-13T12:53:58;98876.13;;;10.77;49.84
21361;BME280;10839;43.206;23.550;2023-02-13T13:01:53;98861.41;;;10.54;51.08
21361;BME280;10839;43.206;23.550;2023-02-13T13:07:18;98856.75;;;11.34;49.14
21361;BME280;10839;43.206;23.550;2023-02-13T13:21:12;98847.59;;;10.21;52.55
21361;BME280;10839;43.206;23.550;2023-02-13T13:23:59;98852.28;;;9.92;53.49
21361;BME280;10839;43.206;23.550;2023-02-13T13:26:49;98840.22;;;10.23;53.30
21361;BME280;10839;43.206;23.550;2023-02-13T13:29:52;98842.88;;;10.51;52.59
21361;BME280;10839;43.206;23.550;2023-02-13T13:32:15;98843.94;;;10.22;52.70
21361;BME280;10839;43.206;23.550;2023-02-13T13:34:42;98842.44;;;9.74;54.04
21361;BME280;10839;43.206;23.550;2023-02-13T13:48:19;98829.63;;;9.12;56.51
21361;BME280;10839;43.206;23.550;2023-02-13T13:50:49;98825.72;;;8.97;57.16
21361;BME280;10839;43.206;23.550;2023-02-13T13:53:17;98835.81;;;9.68;55.08
21361;BME280;10839;43.206;23.550;2023-02-13T13:58:44;98826.72;;;8.96;57.29
21361;BME280;10839;43.206;23.550;2023-02-13T14:04:03;98816.16;;;8.85;58.24
21361;BME280;10839;43.206;23.550;2023-02-13T14:11:52;98822.50;;;8.55;59.77
21361;BME280;10839;43.206;23.550;2023-02-13T14:16:56;98820.31;;;8.21;61.45
21361;BME280;10839;43.206;23.550;2023-02-13T14:19:35;98816.63;;;8.12;62.79
21361;BME280;10839;43.206;23.550;2023-02-13T14:22:25;98821.94;;;8.61;61.77
21361;BME280;10839;43.206;23.550;2023-02-13T14:24:54;98822.63;;;8.25;64.22
21361;BME280;10839;43.206;23.550;2023-02-13T14:27:23;98818.56;;;7.82;65.01
21361;BME280;10839;43.206;23.550;2023-02-13T14:29:50;98812.31;;;7.71;65.19
21361;BME280;10839;43.206;23.550;2023-02-13T14:32:31;98814.97;;;8.21;63.92
21361;BME280;10839;43.206;23.550;2023-02-13T14:35:25;98814.09;;;8.11;63.51
21361;BME280;10839;43.206;23.550;2023-02-13T14:37:57;98817.19;;;7.97;64.42
21361;BME280;10839;43.206;23.550;2023-02-13T14:43:00;98824.16;;;8.18;64.44
21361;BME280;10839;43.206;23.550;2023-02-13T14:45:39;98815.03;;;7.91;65.09
21361;BME280;10839;43.206;23.550;2023-02-13T14:48:13;98808.78;;;7.31;67.56
21361;BME280;10839;43.206;23.550;2023-02-13T14:50:49;98809.50;;;7.63;67.12
21361;BME280;10839;43.206;23.550;2023-02-13T14:53:30;98818.28;;;7.85;66.38
21361;BME280;10839;43.206;23.550;2023-02-13T14:56:11;98816.53;;;7.34;68.58
21361;BME280;10839;43.206;23.550;2023-02-13T14:58:49;98815.19;;;7.49;68.47
21361;BME280;10839;43.206;23.550;2023-02-13T15:01:24;98797.34;;;7.59;67.56
21361;BME280;10839;43.206;23.550;2023-02-13T15:06:38;98800.47;;;7.04;69.02
21361;BME280;10839;43.206;23.550;2023-02-13T15:09:21;98805.47;;;7.48;67.80
21361;BME280;10839;43.206;23.550;2023-02-13T15:11:48;98805.09;;;7.32;68.49
21361;BME280;10839;43.206;23.550;2023-02-13T15:16:40;98802.34;;;7.13;70.28
21361;BME280;10839;43.206;23.550;2023-02-13T15:19:13;98807.34;;;7.27;69.96
21361;BME280;10839;43.206;23.550;2023-02-13T15:21:47;98808.66;;;7.12;70.20
21361;BME280;10839;43.206;23.550;2023-02-13T15:24:15;98804.00;;;6.84;71.45
21361;BME280;10839;43.206;23.550;2023-02-13T15:26:40;98805.31;;;7.10;71.08
21361;BME280;10839;43.206;23.550;2023-02-13T15:29:16;98802.19;;;7.05;70.80
21361;BME280;10839;43.206;23.550;2023-02-13T15:31:42;98796.81;;;6.64;73.34
21361;BME280;10839;43.206;23.550;2023-02-13T15:34:27;98799.81;;;6.71;73.48
21361;BME280;10839;43.206;23.550;2023-02-13T15:36:54;98805.44;;;6.88;73.50
21361;BME280;10839;43.206;23.550;2023-02-13T15:39:29;98807.47;;;6.55;74.40
21361;BME280;10839;43.206;23.550;2023-02-13T15:41:57;98804.03;;;6.32;74.98
21361;BME280;10839;43.206;23.550;2023-02-13T15:44:28;98814.59;;;6.65;74.11
21361;BME280;10839;43.206;23.550;2023-02-13T15:46:59;98806.13;;;6.49;74.86
21361;BME280;10839;43.206;23.550;2023-02-13T15:49:30;98807.72;;;6.20;76.30